sensor_id;sensor_type;location;lat;lon;timestamp;pressure;altitude;pressure_sealevel;temperature;humidity
7170;BME280;3626;42.656;23.312;2022-12-18T00:00:04;95305.47;;;5.62;100.00
7170;BME280;3626;42.656;23.312;2022-12-18T00:00:11;95303.84;;;5.61;100.00
7170;BME280;3626;42.656;23.312;2022-12-18T00:00:18;95306.41;;;5.61;100.00
7170;BME280;3626;42.656;23.312;2022-12-18T00:00:24;95313.38;;;5.59;100.00
7170;BME280;3626;42.656;23.312;2022-12-18T00:00:30;95311.75;;;5.58;100.00
7170;BME280;3626;42.656;23.312;2022-12-18T00:00:39;95304.06;;;5.58;100.00
7170;BME280;3626;42.656;23.312;2022-12-18T00:00:45;95300.69;;;5.58;100.00
7170;BME280;3626;42.656;23.312;2022-12-18T00:00:52;95307.56;;;5.57;100.00
7170;BME280;3626;42.656;23.312;2022-12-18T00:00:57;95305.09;;;5.56;100.00
7170;BME280;3626;42.656;23.312;2022-12-18T00:01:04;95304.28;;;5.55;100.00
7170;BME280;3626;42.656;23.312;2022-12-18T00:01:16;95312.09;;;5.54;100.00
7170;BME280;3626;42.656;23.312;2022-12-18T00:01:24;95305.38;;;5.53;100.00
7170;BME280;3626;42.656;23.312;2022-12-18T00:01:32;95305.38;;;5.53;100.00
7170;BME280;3626;42.656;23.312;2022-12-18T00:01:38;95302.81;;;5.53;100.00
7170;BME280;3626;42.656;23.312;2022-12-18T00:01:45;95307.94;;;5.53;100.00
7170;BME280;3626;42.656;23.312;2022-12-18T00:01:50;95300.25;;;5.53;100.00
7170;BME280;3626;42.656;23.312;2022-12-18T00:01:57;95311.31;;;5.53;100.00
7170;BME280;3626;42.656;23.312;2022-12-18T00:02:03;95313.97;;;5.51;100.00
7170;BME280;3626;42.656;23.312;2022-12-18T00:02:09;95307.22;;;5.50;100.00
7170;BME280;3626;42.656;23.312;2022-12-18T00:02:14;95299.66;;;5.49;100.00
7170;BME280;3626;42.656;23.312;2022-12-18T00:02:20;95305.47;;;5.51;100.00
7170;BME280;3626;42.656;23.312;2022-12-18T00:02:27;95308.97;;;5.50;100.00
7170;BME280;3626;42.656;23.312;2022-12-18T00:02:32;95308.16;;;5.49;100.00
7170;BME280;3626;42.656;23.312;2022-12-18T00:02:38;95304.66;;;5.50;100.00
7170;BME280;3626;42.656;23.312;2022-12-18T00:02:44;95304.66;;;5.50;100.00
7170;BME280;3626;42.656;23.312;2022-12-18T00:02:50;95305.47;;;5.51;100.00
7170;BME280;3626;42.656;23.312;2022-12-18T00:02:56;95307.22;;;5.50;100.00
7170;BME280;3626;42.656;23.312;2022-12-18T00:03:02;95307.22;;;5.50;100.00
7170;BME280;3626;42.656;23.312;2022-12-18T00:03:08;95315.72;;;5.51;100.00
7170;BME280;3626;42.656;23.312;2022-12-18T00:03:13;95311.53;;;5.50;100.00
7170;BME280;3626;42.656;23.312;2022-12-18T00:03:19;95299.53;;;5.50;100.00
7170;BME280;3626;42.656;23.312;2022-12-18T00:03:25;95304.78;;;5.49;100.00
7170;BME280;3626;42.656;23.312;2022-12-18T00:03:32;95302.22;;;5.49;100.00
7170;BME280;3626;42.656;23.312;2022-12-18T00:03:37;95308.16;;;5.49;100.00
7170;BME280;3626;42.656;23.312;2022-12-18T00:03:43;95310.72;;;5.49;100.00
7170;BME280;3626;42.656;23.312;2022-12-18T00:03:49;95307.34;;;5.49;100.00
7170;BME280;3626;42.656;23.312;2022-12-18T00:03:55;95305.72;;;5.48;100.00
7170;BME280;3626;42.656;23.312;2022-12-18T00:04:03;95302.31;;;5.47;100.00
7170;BME280;3626;42.656;23.312;2022-12-18T00:04:19;95309.09;;;5.48;100.00
7170;BME280;3626;42.656;23.312;2022-12-18T00:04:27;95309.09;;;5.48;100.00
7170;BME280;3626;42.656;23.312;2022-12-18T00:04:33;95314.22;;;5.48;100.00
7170;BME280;3626;42.656;23.312;2022-12-18T00:04:38;95306.53;;;5.48;100.00
7170;BME280;3626;42.656;23.312;2022-12-18T00:04:44;95315.97;;;5.48;100.00
7170;BME280;3626;42.656;23.312;2022-12-18T00:04:50;95306.63;;;5.47;100.00
7170;BME280;3626;42.656;23.312;2022-12-18T00:04:56;95307.44;;;5.47;100.00
7170;BME280;3626;42.656;23.312;2022-12-18T00:05:01;95310.84;;;5.48;100.00
7170;BME280;3626;42.656;23.312;2022-12-18T00:05:07;95310.00;;;5.47;100.00
7170;BME280;3626;42.656;23.312;2022-12-18T00:05:13;95313.41;;;5.48;100.00
7170;BME280;3626;42.656;23.312;2022-12-18T00:05:19;95308.28;;;5.48;100.00
7170;BME280;3626;42.656;23.312;2022-12-18T00:05:24;95311.66;;;5.48;100.00
7170;BME280;3626;42.656;23.312;2022-12-18T00:05:31;95309.19;;;5.47;100.00
7170;BME280;3626;42.656;23.312;2022-12-18T00:05:46;95309.91;;;5.49;100.00
7170;BME280;3626;42.656;23.312;2022-12-18T00:05:52;95312.47;;;5.49;100.00
7170;BME280;3626;42.656;23.312;2022-12-18T00:05:58;95317.47;;;5.50;100.00
7170;BME280;3626;42.656;23.312;2022-12-18T00:06:03;95312.34;;;5.50;100.00
7170;BME280;3626;42.656;23.312;2022-12-18T00:06:09;95314.91;;;5.50;100.00
7170;BME280;3626;42.656;23.312;2022-12-18T00:06:15;95309.78;;;5.50;100.00
7170;BME280;3626;42.656;23.312;2022-12-18T00:06:22;95310.72;;;5.49;100.00
7170;BME280;3626;42.656;23.312;2022-12-18T00:06:29;95315.84;;;5.49;100.00
7170;BME280;3626;42.656;23.312;2022-12-18T00:06:35;95310.00;;;5.47;100.00
7170;BME280;3626;42.656;23.312;2022-12-18T00:06:41;95307.44;;;5.47;100.00
7170;BME280;3626;42.656;23.312;2022-12-18T00:06:46;95304.88;;;5.47;100.00
7170;BME280;3626;42.656;23.312;2022-12-18T00:06:52;95312.56;;;5.47;100.00
7170;BME280;3626;42.656;23.312;2022-12-18T00:06:59;95310.94;;;5.46;100.00
7170;BME280;3626;42.656;23.312;2022-12-18T00:07:05;95312.56;;;5.47;100.00
7170;BME280;3626;42.656;23.312;2022-12-18T00:07:11;95318.63;;;5.46;100.00
7170;BME280;3626;42.656;23.312;2022-12-18T00:07:16;95313.41;;;5.48;100.00
7170;BME280;3626;42.656;23.312;2022-12-18T00:07:22;95315.13;;;5.47;100.00
7170;BME280;3626;42.656;23.312;2022-12-18T00:07:27;95315.13;;;5.47;100.00
7170;BME280;3626;42.656;23.312;2022-12-18T00:07:33;95309.09;;;5.48;100.00
7170;BME280;3626;42.656;23.312;2022-12-18T00:07:39;95315.03;;;5.49;100.00
7170;BME280;3626;42.656;23.312;2022-12-18T00:07:44;95309.91;;;5.49;100.00
7170;BME280;3626;42.656;23.312;2022-12-18T00:07:50;95309.09;;;5.48;100.00
7170;BME280;3626;42.656;23.312;2022-12-18T00:07:56;95315.84;;;5.49;100.00
7170;BME280;3626;42.656;23.312;2022-12-18T00:08:01;95310.00;;;5.47;100.00
7170;BME280;3626;42.656;23.312;2022-12-18T00:08:07;95312.56;;;5.47;100.00
7170;BME280;3626;42.656;23.312;2022-12-18T00:08:13;95316.06;;;5.46;100.00
7170;BME280;3626;42.656;23.312;2022-12-18T00:08:19;95309.31;;;5.45;100.00
7170;BME280;3626;42.656;23.312;2022-12-18T00:08:26;95313.72;;;5.43;100.00
7170;BME280;3626;42.656;23.312;2022-12-18T00:08:31;95310.38;;;5.43;100.00
7170;BME280;3626;42.656;23.312;2022-12-18T00:08:37;95321.53;;;5.42;100.00
7170;BME280;3626;42.656;23.312;2022-12-18T00:08:44;95318.16;;;5.41;100.00
7170;BME280;3626;42.656;23.312;2022-12-18T00:08:50;95316.53;;;5.40;100.00
7170;BME280;3626;42.656;23.312;2022-12-18T00:08:57;95304.66;;;5.39;100.00
7170;BME280;3626;42.656;23.312;2022-12-18T00:09:03;95315.03;;;5.38;100.00
7170;BME280;3626;42.656;23.312;2022-12-18T00:09:09;95314.22;;;5.37;100.00
7170;BME280;3626;42.656;23.312;2022-12-18T00:09:15;95316.78;;;5.37;100.00
7170;BME280;3626;42.656;23.312;2022-12-18T00:09:21;95310.97;;;5.35;100.00
7170;BME280;3626;42.656;23.312;2022-12-18T00:09:26;95311.88;;;5.34;100.00
7170;BME280;3626;42.656;23.312;2022-12-18T00:09:32;95311.88;;;5.34;100.00
7170;BME280;3626;42.656;23.312;2022-12-18T00:09:39;95314.44;;;5.34;100.00
7170;BME280;3626;42.656;23.312;2022-12-18T00:09:45;95322.84;;;5.36;100.00
7170;BME280;3626;42.656;23.312;2022-12-18T00:09:51;95318.75;;;5.34;100.00
7170;BME280;3626;42.656;23.312;2022-12-18T00:09:56;95313.75;;;5.32;100.00
7170;BME280;3626;42.656;23.312;2022-12-18T00:10:03;95304.78;;;5.26;100.00
7170;BME280;3626;42.656;23.312;2022-12-18T00:10:09;95313.31;;;5.27;100.00
7170;BME280;3626;42.656;23.312;2022-12-18T00:10:14;95303.88;;;5.28;100.00
7170;BME280;3626;42.656;23.312;2022-12-18T00:10:23;95309.09;;;5.26;100.00
7170;BME280;3626;42.656;23.312;2022-12-18T00:10:28;95315.84;;;5.27;100.00
7170;BME280;3626;42.656;23.312;2022-12-18T00:10:34;95316.66;;;5.28;100.00
7170;BME280;3626;42.656;23.312;2022-12-18T00:10:40;95315.84;;;5.27;100.00
7170;BME280;3626;42.656;23.312;2022-12-18T00:10:45;95314.09;;;5.28;100.00
7170;BME280;3626;42.656;23.312;2022-12-18T00:10:51;95320.03;;;5.28;100.00
7170;BME280;3626;42.656;23.312;2022-12-18T00:11:03;95311.66;;;5.26;100.00
7170;BME280;3626;42.656;23.312;2022-12-18T00:11:14;95315.84;;;5.27;100.00
7170;BME280;3626;42.656;23.312;2022-12-18T00:11:21;95310.75;;;5.27;100.00
7170;BME280;3626;42.656;23.312;2022-12-18T00:11:29;95310.75;;;5.27;100.00
7170;BME280;3626;42.656;23.312;2022-12-18T00:11:35;95310.75;;;5.27;100.00
7170;BME280;3626;42.656;23.312;2022-12-18T00:11:41;95311.56;;;5.28;100.00
7170;BME280;3626;42.656;23.312;2022-12-18T00:11:47;95312.34;;;5.28;100.00
7170;BME280;3626;42.656;23.312;2022-12-18T00:11:52;95313.16;;;5.29;100.00
7170;BME280;3626;42.656;23.312;2022-12-18T00:11:58;95320.84;;;5.29;100.00
7170;BME280;3626;42.656;23.312;2022-12-18T00:12:04;95316.66;;;5.28;100.00
7170;BME280;3626;42.656;23.312;2022-12-18T00:12:10;95306.44;;;5.28;100.00
7170;BME280;3626;42.656;23.312;2022-12-18T00:12:15;95313.97;;;5.29;100.00
7170;BME280;3626;42.656;23.312;2022-12-18T00:12:21;95308.88;;;5.29;100.00
7170;BME280;3626;42.656;23.312;2022-12-18T00:12:28;95314.78;;;5.30;100.00
7170;BME280;3626;42.656;23.312;2022-12-18T00:12:33;95318.16;;;5.30;100.00
7170;BME280;3626;42.656;23.312;2022-12-18T00:12:39;95321.53;;;5.31;100.00
7170;BME280;3626;42.656;23.312;2022-12-18T00:12:45;95320.84;;;5.29;100.00
7170;BME280;3626;42.656;23.312;2022-12-18T00:12:50;95319.22;;;5.28;100.00
7170;BME280;3626;42.656;23.312;2022-12-18T00:12:56;95308.19;;;5.27;100.00
7170;BME280;3626;42.656;23.312;2022-12-18T00:13:02;95316.09;;;5.24;100.00
7170;BME280;3626;42.656;23.312;2022-12-18T00:13:08;95310.97;;;5.24;100.00
7170;BME280;3626;42.656;23.312;2022-12-18T00:13:14;95317.03;;;5.23;100.00
7170;BME280;3626;42.656;23.312;2022-12-18T00:13:19;95310.25;;;5.22;100.00
7170;BME280;3626;42.656;23.312;2022-12-18T00:13:25;95310.16;;;5.23;100.00
7170;BME280;3626;42.656;23.312;2022-12-18T00:13:32;95312.72;;;5.23;100.00
7170;BME280;3626;42.656;23.312;2022-12-18T00:13:38;95314.47;;;5.23;100.00
7170;BME280;3626;42.656;23.312;2022-12-18T00:13:45;95318.66;;;5.24;100.00
7170;BME280;3626;42.656;23.312;2022-12-18T00:13:53;95315.38;;;5.22;100.00
7170;BME280;3626;42.656;23.312;2022-12-18T00:14:00;95313.66;;;5.22;100.00
7170;BME280;3626;42.656;23.312;2022-12-18T00:14:06;95312.81;;;5.22;100.00
7170;BME280;3626;42.656;23.312;2022-12-18T00:14:13;95314.47;;;5.23;100.00
7170;BME280;3626;42.656;23.312;2022-12-18T00:14:18;95310.97;;;5.24;100.00
7170;BME280;3626;42.656;23.312;2022-12-18T00:14:24;95317.03;;;5.23;100.00
7170;BME280;3626;42.656;23.312;2022-12-18T00:14:31;95316.31;;;5.21;100.00
7170;BME280;3626;42.656;23.312;2022-12-18T00:14:36;95314.69;;;5.20;100.00
7170;BME280;3626;42.656;23.312;2022-12-18T00:14:43;95312.13;;;5.20;100.00
7170;BME280;3626;42.656;23.312;2022-12-18T00:14:49;95319.00;;;5.19;100.00
7170;BME280;3626;42.656;23.312;2022-12-18T00:14:56;95309.69;;;5.18;100.00
7170;BME280;3626;42.656;23.312;2022-12-18T00:15:01;95314.81;;;5.18;100.00
7170;BME280;3626;42.656;23.312;2022-12-18T00:15:08;95314.81;;;5.18;100.00
7170;BME280;3626;42.656;23.312;2022-12-18T00:15:13;95314.91;;;5.17;100.00
7170;BME280;3626;42.656;23.312;2022-12-18T00:15:19;95313.97;;;5.18;100.00
7170;BME280;3626;42.656;23.312;2022-12-18T00:15:25;95316.53;;;5.18;100.00
7170;BME280;3626;42.656;23.312;2022-12-18T00:15:33;95325.06;;;5.18;100.00
7170;BME280;3626;42.656;23.312;2022-12-18T00:15:39;95327.47;;;5.20;100.00
7170;BME280;3626;42.656;23.312;2022-12-18T00:15:45;95313.97;;;5.18;100.00
7170;BME280;3626;42.656;23.312;2022-12-18T00:15:51;95321.66;;;5.18;100.00
7170;BME280;3626;42.656;23.312;2022-12-18T00:16:01;95318.19;;;5.19;100.00
7170;BME280;3626;42.656;23.312;2022-12-18T00:16:09;95320.03;;;5.17;100.00
7170;BME280;3626;42.656;23.312;2022-12-18T00:16:17;95320.84;;;5.17;100.00
7170;BME280;3626;42.656;23.312;2022-12-18T00:16:26;95316.53;;;5.18;100.00
7170;BME280;3626;42.656;23.312;2022-12-18T00:16:33;95322.50;;;5.18;100.00
7170;BME280;3626;42.656;23.312;2022-12-18T00:16:43;95320.03;;;5.17;100.00
7170;BME280;3626;42.656;23.312;2022-12-18T00:16:49;95326.22;;;5.14;100.00
7170;BME280;3626;42.656;23.312;2022-12-18T00:16:55;95321.09;;;5.14;100.00
7170;BME280;3626;42.656;23.312;2022-12-18T00:17:00;95322.72;;;5.15;100.00
7170;BME280;3626;42.656;23.312;2022-12-18T00:17:06;95323.53;;;5.16;100.00
7170;BME280;3626;42.656;23.312;2022-12-18T00:17:12;95327.03;;;5.15;100.00
7170;BME280;3626;42.656;23.312;2022-12-18T00:17:17;95330.47;;;5.14;100.00
7170;BME280;3626;42.656;23.312;2022-12-18T00:17:23;95322.81;;;5.14;100.00
7170;BME280;3626;42.656;23.312;2022-12-18T00:17:29;95332.13;;;5.15;100.00
7170;BME280;3626;42.656;23.312;2022-12-18T00:17:34;95322.00;;;5.13;100.00
7170;BME280;3626;42.656;23.312;2022-12-18T00:17:40;95326.44;;;5.11;100.00
7170;BME280;3626;42.656;23.312;2022-12-18T00:17:47;95322.94;;;5.12;100.00
7170;BME280;3626;42.656;23.312;2022-12-18T00:17:52;95319.56;;;5.12;100.00
7170;BME280;3626;42.656;23.312;2022-12-18T00:17:58;95318.63;;;5.13;100.00
7170;BME280;3626;42.656;23.312;2022-12-18T00:18:04;95315.13;;;5.14;100.00
7170;BME280;3626;42.656;23.312;2022-12-18T00:18:10;95321.09;;;5.14;100.00
7170;BME280;3626;42.656;23.312;2022-12-18T00:18:15;95322.81;;;5.14;100.00
7170;BME280;3626;42.656;23.312;2022-12-18T00:18:21;95320.25;;;5.14;100.00
7170;BME280;3626;42.656;23.312;2022-12-18T00:18:27;95321.19;;;5.13;100.00
7170;BME280;3626;42.656;23.312;2022-12-18T00:18:32;95322.00;;;5.13;100.00
7170;BME280;3626;42.656;23.312;2022-12-18T00:18:38;95323.75;;;5.13;100.00
7170;BME280;3626;42.656;23.312;2022-12-18T00:18:44;95318.63;;;5.13;100.00
7170;BME280;3626;42.656;23.312;2022-12-18T00:18:52;95321.09;;;5.14;100.00
7170;BME280;3626;42.656;23.312;2022-12-18T00:18:59;95318.53;;;5.14;100.00
7170;BME280;3626;42.656;23.312;2022-12-18T00:19:05;95327.13;;;5.13;100.00
7170;BME280;3626;42.656;23.312;2022-12-18T00:19:13;95321.09;;;5.14;100.00
7170;BME280;3626;42.656;23.312;2022-12-18T00:19:19;95326.09;;;5.16;100.00
7170;BME280;3626;42.656;23.312;2022-12-18T00:19:25;95323.66;;;5.14;100.00
7170;BME280;3626;42.656;23.312;2022-12-18T00:19:30;95321.19;;;5.13;100.00
7170;BME280;3626;42.656;23.312;2022-12-18T00:19:36;95326.22;;;5.14;100.00
7170;BME280;3626;42.656;23.312;2022-12-18T00:19:42;95322.81;;;5.14;100.00
7170;BME280;3626;42.656;23.312;2022-12-18T00:19:47;95320.25;;;5.14;100.00
7170;BME280;3626;42.656;23.312;2022-12-18T00:19:53;95320.25;;;5.14;100.00
7170;BME280;3626;42.656;23.312;2022-12-18T00:19:59;95315.13;;;5.14;100.00
7170;BME280;3626;42.656;23.312;2022-12-18T00:20:05;95320.25;;;5.14;100.00
7170;BME280;3626;42.656;23.312;2022-12-18T00:20:11;95319.34;;;5.15;100.00
7170;BME280;3626;42.656;23.312;2022-12-18T00:20:17;95313.41;;;5.14;100.00
7170;BME280;3626;42.656;23.312;2022-12-18T00:20:36;95323.53;;;5.16;100.00
7170;BME280;3626;42.656;23.312;2022-12-18T00:20:42;95324.34;;;5.16;100.00
7170;BME280;3626;42.656;23.312;2022-12-18T00:20:47;95324.34;;;5.16;100.00
7170;BME280;3626;42.656;23.312;2022-12-18T00:20:53;95320.03;;;5.17;100.00
7170;BME280;3626;42.656;23.312;2022-12-18T00:20:59;95324.22;;;5.18;100.00
7170;BME280;3626;42.656;23.312;2022-12-18T00:21:07;95321.66;;;5.18;100.00
7170;BME280;3626;42.656;23.312;2022-12-18T00:21:14;95325.84;;;5.19;100.00
7170;BME280;3626;42.656;23.312;2022-12-18T00:21:21;95324.34;;;5.16;100.00
7170;BME280;3626;42.656;23.312;2022-12-18T00:21:27;95321.91;;;5.15;100.00
7170;BME280;3626;42.656;23.312;2022-12-18T00:21:33;95321.91;;;5.15;100.00
7170;BME280;3626;42.656;23.312;2022-12-18T00:21:40;95317.00;;;5.12;100.00
7170;BME280;3626;42.656;23.312;2022-12-18T00:21:46;95325.63;;;5.11;100.00
7170;BME280;3626;42.656;23.312;2022-12-18T00:21:51;95327.47;;;5.09;100.00
7170;BME280;3626;42.656;23.312;2022-12-18T00:21:58;95325.84;;;5.08;100.00
7170;BME280;3626;42.656;23.312;2022-12-18T00:22:04;95324.22;;;5.07;100.00
7170;BME280;3626;42.656;23.312;2022-12-18T00:22:10;95330.16;;;5.07;100.00
7170;BME280;3626;42.656;23.312;2022-12-18T00:22:16;95326.78;;;5.07;100.00
7170;BME280;3626;42.656;23.312;2022-12-18T00:22:21;95322.59;;;5.06;100.00
7170;BME280;3626;42.656;23.312;2022-12-18T00:22:27;95321.88;;;5.04;100.00
7170;BME280;3626;42.656;23.312;2022-12-18T00:22:33;95326.88;;;5.05;100.00
7170;BME280;3626;42.656;23.312;2022-12-18T00:22:38;95327.72;;;5.06;100.00
7170;BME280;3626;42.656;23.312;2022-12-18T00:22:44;95326.88;;;5.05;100.00
7170;BME280;3626;42.656;23.312;2022-12-18T00:22:49;95322.59;;;5.06;100.00
7170;BME280;3626;42.656;23.312;2022-12-18T00:22:55;95322.47;;;5.07;100.00
7170;BME280;3626;42.656;23.312;2022-12-18T00:23:01;95330.16;;;5.07;100.00
7170;BME280;3626;42.656;23.312;2022-12-18T00:23:07;95325.84;;;5.08;100.00
7170;BME280;3626;42.656;23.312;2022-12-18T00:23:12;95330.03;;;5.09;100.00
7170;BME280;3626;42.656;23.312;2022-12-18T00:23:18;95327.47;;;5.09;100.00
7170;BME280;3626;42.656;23.312;2022-12-18T00:23:24;95330.97;;;5.08;100.00
7170;BME280;3626;42.656;23.312;2022-12-18T00:23:30;95328.41;;;5.08;100.00
7170;BME280;3626;42.656;23.312;2022-12-18T00:23:37;95335.25;;;5.07;100.00
7170;BME280;3626;42.656;23.312;2022-12-18T00:23:44;95325.03;;;5.07;100.00
7170;BME280;3626;42.656;23.312;2022-12-18T00:23:51;95327.59;;;5.07;100.00
7170;BME280;3626;42.656;23.312;2022-12-18T00:23:57;95328.41;;;5.08;100.00
7170;BME280;3626;42.656;23.312;2022-12-18T00:24:03;95330.97;;;5.08;100.00
7170;BME280;3626;42.656;23.312;2022-12-18T00:24:10;95337.00;;;5.07;100.00
7170;BME280;3626;42.656;23.312;2022-12-18T00:24:15;95340.38;;;5.07;100.00
7170;BME280;3626;42.656;23.312;2022-12-18T00:24:21;95336.06;;;5.08;100.00
7170;BME280;3626;42.656;23.312;2022-12-18T00:24:27;95337.81;;;5.07;100.00
7170;BME280;3626;42.656;23.312;2022-12-18T00:24:32;95331.09;;;5.06;100.00
7170;BME280;3626;42.656;23.312;2022-12-18T00:24:38;95332.84;;;5.06;100.00
7170;BME280;3626;42.656;23.312;2022-12-18T00:24:44;95337.09;;;5.05;100.00
7170;BME280;3626;42.656;23.312;2022-12-18T00:24:49;95330.38;;;5.04;100.00
7170;BME280;3626;42.656;23.312;2022-12-18T00:24:56;95326.06;;;5.05;100.00
7170;BME280;3626;42.656;23.312;2022-12-18T00:25:02;95332.84;;;5.06;100.00
7170;BME280;3626;42.656;23.312;2022-12-18T00:25:08;95337.22;;;5.04;100.00
7170;BME280;3626;42.656;23.312;2022-12-18T00:25:14;95327.00;;;5.04;100.00
7170;BME280;3626;42.656;23.312;2022-12-18T00:25:20;95322.81;;;5.03;100.00
7170;BME280;3626;42.656;23.312;2022-12-18T00:25:26;95332.94;;;5.04;100.00
7170;BME280;3626;42.656;23.312;2022-12-18T00:25:33;95335.50;;;5.04;100.00
7170;BME280;3626;42.656;23.312;2022-12-18T00:25:39;95332.94;;;5.04;100.00
7170;BME280;3626;42.656;23.312;2022-12-18T00:25:45;95339.78;;;5.04;100.00
7170;BME280;3626;42.656;23.312;2022-12-18T00:25:50;95344.91;;;5.04;100.00
7170;BME280;3626;42.656;23.312;2022-12-18T00:25:58;95334.00;;;5.01;100.00
7170;BME280;3626;42.656;23.312;2022-12-18T00:26:06;95334.00;;;5.01;100.00
7170;BME280;3626;42.656;23.312;2022-12-18T00:26:14;95336.66;;;5.00;100.00
7170;BME280;3626;42.656;23.312;2022-12-18T00:26:22;95335.72;;;5.01;100.00
7170;BME280;3626;42.656;23.312;2022-12-18T00:26:30;95336.53;;;5.01;100.00
7170;BME280;3626;42.656;23.312;2022-12-18T00:26:38;95332.25;;;5.02;100.00
7170;BME280;3626;42.656;23.312;2022-12-18T00:26:44;95345.84;;;5.03;100.00
7170;BME280;3626;42.656;23.312;2022-12-18T00:26:50;95336.53;;;5.01;100.00
7170;BME280;3626;42.656;23.312;2022-12-18T00:26:55;95334.81;;;5.02;100.00
7170;BME280;3626;42.656;23.312;2022-12-18T00:27:01;95330.50;;;5.03;100.00
7170;BME280;3626;42.656;23.312;2022-12-18T00:27:07;95331.31;;;5.03;100.00
7170;BME280;3626;42.656;23.312;2022-12-18T00:27:12;95332.94;;;5.04;100.00
7170;BME280;3626;42.656;23.312;2022-12-18T00:27:18;95339.78;;;5.04;100.00
7170;BME280;3626;42.656;23.312;2022-12-18T00:27:24;95339.78;;;5.04;100.00
7170;BME280;3626;42.656;23.312;2022-12-18T00:27:30;95333.88;;;5.03;100.00
7170;BME280;3626;42.656;23.312;2022-12-18T00:27:36;95332.25;;;5.02;100.00
7170;BME280;3626;42.656;23.312;2022-12-18T00:27:42;95338.16;;;5.03;100.00
7170;BME280;3626;42.656;23.312;2022-12-18T00:27:48;95333.06;;;5.03;100.00
7170;BME280;3626;42.656;23.312;2022-12-18T00:27:53;95337.22;;;5.04;100.00
7170;BME280;3626;42.656;23.312;2022-12-18T00:27:59;95338.16;;;5.03;100.00
7170;BME280;3626;42.656;23.312;2022-12-18T00:28:05;95340.59;;;5.04;100.00
7170;BME280;3626;42.656;23.312;2022-12-18T00:28:11;95336.28;;;5.05;100.00
7170;BME280;3626;42.656;23.312;2022-12-18T00:28:16;95333.75;;;5.05;100.00
7170;BME280;3626;42.656;23.312;2022-12-18T00:28:22;95336.28;;;5.05;100.00
7170;BME280;3626;42.656;23.312;2022-12-18T00:28:28;95333.88;;;5.03;100.00
7170;BME280;3626;42.656;23.312;2022-12-18T00:28:33;95340.72;;;5.03;100.00
7170;BME280;3626;42.656;23.312;2022-12-18T00:28:39;95336.53;;;5.01;100.00
7170;BME280;3626;42.656;23.312;2022-12-18T00:28:45;95340.72;;;5.03;100.00
7170;BME280;3626;42.656;23.312;2022-12-18T00:28:52;95328.97;;;5.00;100.00
7170;BME280;3626;42.656;23.312;2022-12-18T00:28:59;95331.53;;;5.00;100.00
7170;BME280;3626;42.656;23.312;2022-12-18T00:29:07;95338.38;;;4.99;100.00
7170;BME280;3626;42.656;23.312;2022-12-18T00:29:14;95336.78;;;4.98;100.00
7170;BME280;3626;42.656;23.312;2022-12-18T00:29:20;95340.81;;;5.01;100.00
7170;BME280;3626;42.656;23.312;2022-12-18T00:29:25;95343.50;;;4.99;100.00
7170;BME280;3626;42.656;23.312;2022-12-18T00:29:31;95330.72;;;4.99;100.00
7170;BME280;3626;42.656;23.312;2022-12-18T00:29:37;95337.56;;;4.99;100.00
7170;BME280;3626;42.656;23.312;2022-12-18T00:29:42;95334.09;;;5.00;100.00
7170;BME280;3626;42.656;23.312;2022-12-18T00:29:48;95343.50;;;4.99;100.00
7170;BME280;3626;42.656;23.312;2022-12-18T00:29:54;95342.69;;;4.99;100.00
7170;BME280;3626;42.656;23.312;2022-12-18T00:30:00;95330.84;;;4.98;100.00
7170;BME280;3626;42.656;23.312;2022-12-18T00:30:06;95330.84;;;4.98;100.00
7170;BME280;3626;42.656;23.312;2022-12-18T00:30:12;95330.03;;;4.97;100.00
7170;BME280;3626;42.656;23.312;2022-12-18T00:30:18;95329.19;;;4.97;100.00
7170;BME280;3626;42.656;23.312;2022-12-18T00:30:23;95319.81;;;4.97;100.00
7170;BME280;3626;42.656;23.312;2022-12-18T00:30:31;95333.50;;;4.96;100.00
7170;BME280;3626;42.656;23.312;2022-12-18T00:30:38;95328.38;;;4.96;100.00
7170;BME280;3626;42.656;23.312;2022-12-18T00:30:44;95337.81;;;4.96;100.00
7170;BME280;3626;42.656;23.312;2022-12-18T00:30:49;95336.19;;;4.95;100.00
7170;BME280;3626;42.656;23.312;2022-12-18T00:31:00;95329.31;;;4.95;100.00
7170;BME280;3626;42.656;23.312;2022-12-18T00:31:08;95334.44;;;4.95;100.00
7170;BME280;3626;42.656;23.312;2022-12-18T00:31:15;95336.88;;;4.97;100.00
7170;BME280;3626;42.656;23.312;2022-12-18T00:31:24;95342.91;;;4.96;100.00
7170;BME280;3626;42.656;23.312;2022-12-18T00:31:30;95338.88;;;4.93;100.00
7170;BME280;3626;42.656;23.312;2022-12-18T00:31:36;95326.97;;;4.92;100.00
7170;BME280;3626;42.656;23.312;2022-12-18T00:31:42;95337.94;;;4.94;100.00
7170;BME280;3626;42.656;23.312;2022-12-18T00:31:48;95337.00;;;4.95;100.00
7170;BME280;3626;42.656;23.312;2022-12-18T00:31:54;95331.06;;;4.95;100.00
7170;BME280;3626;42.656;23.312;2022-12-18T00:31:59;95340.47;;;4.94;100.00
7170;BME280;3626;42.656;23.312;2022-12-18T00:32:06;95337.13;;;4.94;100.00
7170;BME280;3626;42.656;23.312;2022-12-18T00:32:12;95342.09;;;4.95;100.00
7170;BME280;3626;42.656;23.312;2022-12-18T00:32:17;95339.53;;;4.95;100.00
7170;BME280;3626;42.656;23.312;2022-12-18T00:32:23;95333.50;;;4.96;100.00
7170;BME280;3626;42.656;23.312;2022-12-18T00:32:29;95339.53;;;4.95;100.00
7170;BME280;3626;42.656;23.312;2022-12-18T00:32:34;95332.69;;;4.96;100.00
7170;BME280;3626;42.656;23.312;2022-12-18T00:32:40;95338.63;;;4.96;100.00
7170;BME280;3626;42.656;23.312;2022-12-18T00:32:46;95336.88;;;4.97;100.00
7170;BME280;3626;42.656;23.312;2022-12-18T00:32:51;95336.19;;;4.95;100.00
7170;BME280;3626;42.656;23.312;2022-12-18T00:32:57;95345.59;;;4.94;100.00
7170;BME280;3626;42.656;23.312;2022-12-18T00:33:03;95344.66;;;4.95;100.00
7170;BME280;3626;42.656;23.312;2022-12-18T00:33:09;95350.72;;;4.94;100.00
7170;BME280;3626;42.656;23.312;2022-12-18T00:33:14;95338.06;;;4.93;100.00
7170;BME280;3626;42.656;23.312;2022-12-18T00:33:20;95348.28;;;4.93;100.00
7170;BME280;3626;42.656;23.312;2022-12-18T00:33:26;95336.31;;;4.93;100.00
7170;BME280;3626;42.656;23.312;2022-12-18T00:33:31;95337.22;;;4.92;100.00
7170;BME280;3626;42.656;23.312;2022-12-18T00:33:38;95338.88;;;4.93;100.00
7170;BME280;3626;42.656;23.312;2022-12-18T00:33:43;95342.22;;;4.94;100.00
7170;BME280;3626;42.656;23.312;2022-12-18T00:33:49;95335.59;;;4.91;100.00